Time;durP1;ratioP1;P1;durP2;ratioP2;P2;SDS_P1;SDS_P2;PMS_P1;PMS_P2;Temp;Humidity;BMP_temperature;BMP_pressure;BME280_temperature;BME280_humidity;BME280_pressure;Samples;Min_cycle;Max_cycle;Signal;HPM_P1;HPM_P2
2022/02/21 00:02:03;;;;;;;21.63;3.83;;;;;;;5.79;91.72;99637.28;5053152;28;20106;-78
2022/02/21 00:04:29;;;;;;;19.85;2.67;;;;;;;5.75;89.01;99630.47;5053139;28;20119;-79
2022/02/21 00:06:54;;;;;;;16.33;2.80;;;;;;;5.75;91.23;99643.63;5053465;28;20451;-79
2022/02/21 00:09:20;;;;;;;18.35;3.13;;;;;;;5.75;89.36;99614.72;5054417;28;20075;-79
2022/02/21 00:11:45;;;;;;;19.23;3.53;;;;;;;5.73;88.44;99643.69;5053328;28;20029;-78
2022/02/21 00:14:11;;;;;;;17.13;2.72;;;;;;;5.77;90.71;99656.69;5052924;28;20090;-78
2022/02/21 00:16:37;;;;;;;17.42;2.80;;;;;;;5.69;89.37;99665.75;5052632;28;20033;-78
2022/02/21 00:19:03;;;;;;;9.88;2.70;;;;;;;5.64;88.97;99674.75;5053263;28;20021;-78
2022/02/21 00:21:29;;;;;;;15.02;2.88;;;;;;;5.53;88.19;99694.44;5054259;28;20033;-78
2022/02/21 00:23:55;;;;;;;10.90;2.42;;;;;;;5.46;86.70;99619.50;5053622;28;20025;-78
2022/02/21 00:26:21;;;;;;;14.40;2.17;;;;;;;5.45;87.51;99698.31;5052651;28;20033;-78
2022/02/21 00:28:46;;;;;;;19.48;3.30;;;;;;;5.46;88.26;99681.63;5053207;28;20021;-77
2022/02/21 00:31:12;;;;;;;15.15;2.67;;;;;;;5.44;88.44;99686.97;5053627;28;20127;-78
2022/02/21 00:33:37;;;;;;;12.68;2.60;;;;;;;5.46;91.08;99718.41;5053157;28;20102;-77
2022/02/21 00:36:03;;;;;;;16.60;2.72;;;;;;;5.50;89.07;99723.47;5052559;28;20060;-77
2022/02/21 00:38:28;;;;;;;17.25;2.72;;;;;;;5.49;88.18;99727.00;5052877;28;20028;-78
2022/02/21 00:40:54;;;;;;;13.40;2.55;;;;;;;5.52;87.59;99719.00;5054108;28;20029;-77
2022/02/21 00:43:19;;;;;;;12.52;2.50;;;;;;;5.52;85.68;99740.00;5052933;28;20036;-78
2022/02/21 00:45:44;;;;;;;15.23;2.75;;;;;;;5.50;85.07;99717.34;5052615;28;20029;-77
2022/02/21 00:48:10;;;;;;;15.50;2.85;;;;;;;5.50;85.26;99725.22;5052653;28;20621;-78
2022/02/21 00:50:36;;;;;;;12.90;2.10;;;;;;;5.46;85.21;99726.28;5053043;28;20033;-77
2022/02/21 00:53:02;;;;;;;15.43;2.90;;;;;;;5.43;84.21;99744.78;5060804;28;20111;-77
2022/02/21 00:55:27;;;;;;;13.05;2.25;;;;;;;5.40;85.55;99749.25;5073041;28;20562;-80
2022/02/21 00:57:53;;;;;;;15.93;2.40;;;;;;;5.38;84.11;99737.97;5049475;28;20033;-78
2022/02/21 01:00:19;;;;;;;13.15;2.92;;;;;;;5.47;83.12;99741.97;5033061;28;20025;-80
2022/02/21 01:02:44;;;;;;;10.05;2.38;;;;;;;5.50;82.73;99746.22;5041915;28;20021;-77
2022/02/21 01:05:10;;;;;;;20.52;3.90;;;;;;;5.48;82.61;99753.34;5052717;28;20535;-78
2022/02/21 01:07:35;;;;;;;15.32;2.22;;;;;;;5.49;79.44;99774.28;5053586;28;20037;-77
2022/02/21 01:10:01;;;;;;;10.15;2.50;;;;;;;5.44;79.57;99773.59;5057132;28;20092;-77
2022/02/21 01:12:26;;;;;;;14.43;2.58;;;;;;;5.46;80.35;99778.78;5056626;28;20376;-77
2022/02/21 01:14:52;;;;;;;10.75;2.42;;;;;;;5.45;79.22;99763.94;5057704;28;20091;-80
2022/02/21 01:17:19;;;;;;;16.65;2.70;;;;;;;5.42;81.06;99780.69;5054808;28;20029;-76
2022/02/21 01:19:44;;;;;;;16.67;2.90;;;;;;;5.39;81.82;99780.81;5056344;28;20028;-77
2022/02/21 01:22:10;;;;;;;14.68;2.50;;;;;;;5.43;82.59;99789.44;5056870;28;20029;-77
2022/02/21 01:24:35;;;;;;;15.57;2.72;;;;;;;5.41;80.64;99790.34;5057772;28;20029;-77
2022/02/21 01:27:00;;;;;;;15.63;2.70;;;;;;;5.46;81.75;99753.41;5056370;28;20435;-76
2022/02/21 01:29:26;;;;;;;23.35;3.33;;;;;;;5.46;83.41;99782.28;5056405;28;20487;-78
2022/02/21 01:31:53;;;;;;;13.52;2.53;;;;;;;5.46;83.07;99776.16;5056408;28;20544;-76
2022/02/21 01:34:20;;;;;;;12.60;2.50;;;;;;;5.43;80.54;99724.63;5056679;28;20080;-75
2022/02/21 01:36:46;;;;;;;17.00;2.97;;;;;;;5.45;82.00;99822.59;5056723;28;20033;-76
2022/02/21 01:39:11;;;;;;;14.70;2.70;;;;;;;5.40;81.64;99800.91;5055895;28;20028;-75
2022/02/21 01:41:36;;;;;;;13.32;2.40;;;;;;;5.37;80.66;99807.13;5056044;28;20037;-77
2022/02/21 01:44:07;;;;;;;18.02;3.05;;;;;;;5.36;80.39;99804.59;5056411;28;20083;-78
2022/02/21 01:46:32;;;;;;;10.48;2.60;;;;;;;5.37;78.34;99778.25;5056941;28;20550;-77
2022/02/21 01:48:58;;;;;;;15.32;2.47;;;;;;;5.34;79.10;99809.03;5055429;28;20021;-77
2022/02/21 01:51:24;;;;;;;13.23;2.28;;;;;;;5.29;77.88;99827.56;5055816;28;20029;-81
2022/02/21 01:53:49;;;;;;;11.95;2.35;;;;;;;5.26;78.46;99801.47;5056022;28;20033;-77
2022/02/21 01:56:15;;;;;;;11.20;2.22;;;;;;;5.27;77.81;99818.91;5051533;28;20053;-79
2022/02/21 01:58:41;;;;;;;9.13;2.60;;;;;;;5.25;75.78;99792.72;5035990;28;20517;-77
2022/02/21 02:01:06;;;;;;;12.93;2.75;;;;;;;5.29;75.26;99813.59;5036072;28;20083;-77
2022/02/21 02:03:31;;;;;;;12.23;2.53;;;;;;;5.32;75.35;99809.09;5035583;28;20385;-77
2022/02/21 02:05:57;;;;;;;16.50;2.47;;;;;;;5.32;75.96;99829.22;5037526;28;20461;-78
2022/02/21 02:08:22;;;;;;;10.45;2.50;;;;;;;5.33;76.01;99833.56;5055197;28;20527;-80
2022/02/21 02:10:47;;;;;;;11.88;2.42;;;;;;;5.35;73.23;99826.50;5055059;28;20090;-80
2022/02/21 02:13:13;;;;;;;9.93;2.00;;;;;;;5.37;74.56;99815.00;5055624;28;20071;-80
2022/02/21 02:15:38;;;;;;;12.43;2.33;;;;;;;5.37;72.58;99811.50;5055308;28;20060;-78
2022/02/21 02:18:03;;;;;;;10.10;2.03;;;;;;;5.38;75.09;99815.84;5056150;28;20061;-81
2022/02/21 02:20:29;;;;;;;11.63;2.50;;;;;;;5.36;73.83;99847.44;5054470;28;20039;-77
2022/02/21 02:22:54;;;;;;;12.45;2.40;;;;;;;5.39;73.61;99821.03;5055395;28;20029;-80
2022/02/21 02:25:20;;;;;;;12.18;1.95;;;;;;;5.40;74.53;99817.50;5055542;28;20396;-77
2022/02/21 02:27:46;;;;;;;13.30;2.67;;;;;;;5.42;74.81;99820.06;5055990;28;20464;-77
2022/02/21 02:30:12;;;;;;;14.68;3.03;;;;;;;5.43;74.68;99813.06;5055396;28;20043;-77
2022/02/21 02:32:37;;;;;;;12.13;2.20;;;;;;;5.41;73.40;99836.75;5055097;28;20461;-77
2022/02/21 02:35:04;;;;;;;13.50;2.40;;;;;;;5.40;72.65;99817.50;5054654;28;20041;-76
2022/02/21 02:37:29;;;;;;;11.55;2.28;;;;;;;5.40;74.49;99827.16;5054856;28;20040;-81
2022/02/21 02:39:57;;;;;;;25.15;3.50;;;;;;;5.32;75.26;99832.72;5056103;28;20025;-78
2022/02/21 02:42:23;;;;;;;9.07;2.30;;;;;;;5.28;73.38;99825.88;5055068;28;20112;-80
2022/02/21 02:44:48;;;;;;;13.25;2.65;;;;;;;5.29;73.13;99816.22;5055018;28;20105;-77
2022/02/21 02:47:14;;;;;;;16.13;2.50;;;;;;;5.31;75.29;99809.16;5054862;28;20108;-81
2022/02/21 02:49:40;;;;;;;17.17;2.60;;;;;;;5.37;72.59;99824.66;5055500;28;20033;-77
2022/02/21 02:52:06;;;;;;;11.20;2.67;;;;;;;5.33;73.17;99844.06;5054468;28;20021;-79
2022/02/21 02:54:32;;;;;;;17.83;2.67;;;;;;;5.30;73.64;99846.81;5054678;28;20033;-79
2022/02/21 02:56:58;;;;;;;10.93;2.13;;;;;;;5.27;73.65;99853.03;5054547;28;20166;-78
2022/02/21 02:59:25;;;;;;;14.43;2.45;;;;;;;5.24;74.62;99846.16;5055291;28;20100;-78
2022/02/21 03:01:51;;;;;;;16.00;2.95;;;;;;;5.23;73.34;99843.56;5054486;28;20370;-77
2022/02/21 03:04:16;;;;;;;13.90;2.70;;;;;;;5.22;74.30;99847.13;5054574;28;20064;-77
2022/02/21 03:06:41;;;;;;;9.50;2.55;;;;;;;5.20;73.93;99834.03;5054063;28;20048;-81
2022/02/21 03:09:07;;;;;;;12.65;2.75;;;;;;;5.18;74.29;99845.50;5054291;28;20666;-80
2022/02/21 03:11:32;;;;;;;15.32;2.47;;;;;;;5.23;73.41;99833.06;5054671;28;20334;-77
2022/02/21 03:14:00;;;;;;;17.73;2.70;;;;;;;5.18;74.28;99853.38;5054346;28;20480;-78
2022/02/21 03:16:27;;;;;;;15.32;2.40;;;;;;;5.10;73.67;99851.03;5054315;28;20562;-80
2022/02/21 03:18:53;;;;;;;15.63;2.78;;;;;;;5.04;75.22;99841.66;5054134;28;20469;-76
2022/02/21 03:21:18;;;;;;;13.82;2.75;;;;;;;5.07;74.37;99838.06;5054248;28;20044;-79
2022/02/21 03:23:43;;;;;;;17.33;2.88;;;;;;;5.05;74.27;99840.75;5054026;28;20025;-80
2022/02/21 03:26:09;;;;;;;21.95;2.75;;;;;;;5.06;74.16;99844.22;5054079;28;20559;-80
2022/02/21 03:28:34;;;;;;;10.15;2.53;;;;;;;5.01;74.32;99846.16;5054177;28;20029;-80
2022/02/21 03:30:59;;;;;;;12.93;3.08;;;;;;;4.99;72.93;99840.97;5052546;28;20028;-79
2022/02/21 03:33:24;;;;;;;15.02;2.40;;;;;;;4.96;73.53;99819.25;5054867;28;20060;-80
2022/02/21 03:35:50;;;;;;;16.35;2.50;;;;;;;4.97;72.30;99834.06;5051868;28;20481;-78
2022/02/21 03:38:15;;;;;;;10.88;3.00;;;;;;;4.95;71.69;99841.13;5053641;28;20029;-79
2022/02/21 03:40:41;;;;;;;13.43;2.38;;;;;;;4.99;70.30;99850.63;5053402;28;20020;-76
2022/02/21 03:43:06;;;;;;;12.30;2.10;;;;;;;4.99;69.57;99846.22;5054835;28;20040;-78
2022/02/21 03:45:32;;;;;;;12.18;3.20;;;;;;;4.98;70.72;99822.66;5054184;28;20028;-77
2022/02/21 03:47:58;;;;;;;11.88;2.20;;;;;;;4.98;70.63;99826.13;5053825;28;20021;-78
2022/02/21 03:50:23;;;;;;;14.45;2.83;;;;;;;4.98;69.02;99839.25;5053508;28;20087;-80
2022/02/21 03:52:48;;;;;;;14.23;2.80;;;;;;;4.93;71.22;99834.16;5053863;28;20498;-80
2022/02/21 03:55:15;;;;;;;17.63;2.63;;;;;;;4.99;69.90;99799.00;5053677;28;20444;-78
2022/02/21 03:57:40;;;;;;;15.23;2.38;;;;;;;5.01;71.22;99843.53;5053565;28;20032;-77
2022/02/21 04:00:10;;;;;;;10.40;2.50;;;;;;;5.00;71.87;99829.56;5053453;28;20366;-80
2022/02/21 04:02:36;;;;;;;12.77;2.58;;;;;;;4.99;71.44;99803.41;5053096;28;20037;-80
2022/02/21 04:05:01;;;;;;;11.57;2.30;;;;;;;5.00;72.72;99836.56;5054313;28;20031;-80
2022/02/21 04:07:29;;;;;;;15.75;2.63;;;;;;;4.89;72.73;99843.06;5053319;28;20049;-77
2022/02/21 04:09:55;;;;;;;11.20;2.97;;;;;;;4.79;74.11;99825.97;5053200;28;20669;-81
2022/02/21 04:12:21;;;;;;;11.43;2.40;;;;;;;4.78;74.69;99816.38;5052897;28;20036;-80
2022/02/21 04:14:46;;;;;;;12.85;2.60;;;;;;;4.79;73.38;99831.22;5054026;28;20112;-76
2022/02/21 04:17:13;;;;;;;14.05;2.38;;;;;;;4.81;72.35;99821.53;5053275;28;20099;-80
2022/02/21 04:19:38;;;;;;;10.95;2.38;;;;;;;4.82;71.65;99835.50;5053262;28;20032;-80
2022/02/21 04:22:04;;;;;;;11.18;2.30;;;;;;;4.83;72.62;99832.81;5052832;28;20033;-80
2022/02/21 04:24:30;;;;;;;10.27;2.33;;;;;;;4.84;73.16;99842.41;5054328;28;20029;-78
2022/02/21 04:26:55;;;;;;;13.07;2.40;;;;;;;4.75;73.27;99840.97;5053046;28;20032;-81
2022/02/21 04:29:21;;;;;;;12.70;2.80;;;;;;;4.71;74.71;99849.84;5053098;28;20028;-81
2022/02/21 04:31:46;;;;;;;12.70;2.20;;;;;;;4.71;75.22;99849.84;5053199;28;20128;-79
2022/02/21 04:34:11;;;;;;;21.10;3.03;;;;;;;4.81;75.52;99834.66;5052594;28;20048;-80
2022/02/21 04:36:38;;;;;;;14.75;2.60;;;;;;;4.87;76.13;99844.03;5054072;28;20110;-80
2022/02/21 04:39:04;;;;;;;14.40;2.50;;;;;;;4.93;77.43;99863.03;5052621;28;20461;-80
2022/02/21 04:41:29;;;;;;;17.70;2.40;;;;;;;4.89;78.13;99837.84;5052897;28;20052;-78
2022/02/21 04:43:55;;;;;;;16.25;3.15;;;;;;;4.88;78.32;99836.13;5052161;28;20037;-79
2022/02/21 04:46:20;;;;;;;9.60;2.03;;;;;;;4.86;79.03;99843.19;5053916;28;20079;-81
2022/02/21 04:48:46;;;;;;;12.18;2.40;;;;;;;4.89;76.97;99848.31;5052892;28;20532;-80
2022/02/21 04:51:12;;;;;;;16.73;2.60;;;;;;;4.86;77.35;99851.06;5052831;28;20086;-81
2022/02/21 04:53:37;;;;;;;13.48;2.30;;;;;;;4.85;78.18;99832.78;5052427;28;20036;-80
2022/02/21 04:56:03;;;;;;;14.85;2.90;;;;;;;4.76;78.04;99792.84;5052605;28;20033;-80
2022/02/21 04:58:28;;;;;;;16.83;3.22;;;;;;;4.74;77.44;99841.03;5054138;28;20017;-79
2022/02/21 05:00:53;;;;;;;12.90;3.13;;;;;;;4.72;76.47;99825.34;5052824;28;20107;-80
2022/02/21 05:03:19;;;;;;;16.80;2.83;;;;;;;4.66;77.56;99798.50;5052717;28;20159;-81
2022/02/21 05:05:44;;;;;;;14.43;2.40;;;;;;;4.70;75.94;99816.66;5052386;28;20077;-80
2022/02/21 05:08:09;;;;;;;12.73;2.65;;;;;;;4.67;75.37;99808.09;5061069;28;20074;-80
2022/02/21 05:10:35;;;;;;;15.07;2.38;;;;;;;4.65;76.04;99818.63;5072202;28;20063;-74
2022/02/21 05:13:00;;;;;;;18.67;2.58;;;;;;;4.59;77.44;99803.09;5072690;28;20416;-81
2022/02/21 05:15:26;;;;;;;15.98;2.80;;;;;;;4.62;77.22;99807.38;5061908;28;20040;-80
2022/02/21 05:17:51;;;;;;;10.30;2.13;;;;;;;4.66;75.73;99799.34;5052751;28;20021;-79
2022/02/21 05:20:16;;;;;;;17.50;2.65;;;;;;;4.67;74.90;99795.81;5054579;28;20510;-76
2022/02/21 05:22:41;;;;;;;12.48;3.13;;;;;;;4.69;74.41;99769.53;5072243;28;20059;-79
2022/02/21 05:25:07;;;;;;;16.13;2.78;;;;;;;4.70;73.39;99793.06;5067386;28;20384;-81
2022/02/21 05:27:34;;;;;;;12.25;2.60;;;;;;;4.73;73.99;99779.84;5052356;28;20029;-80
2022/02/21 05:29:59;;;;;;;13.40;2.53;;;;;;;4.71;73.99;99778.22;5064797;28;20376;-80
2022/02/21 05:32:25;;;;;;;10.43;2.33;;;;;;;4.70;75.08;99752.88;5072465;28;20025;-80
2022/02/21 05:34:51;;;;;;;11.38;2.55;;;;;;;4.76;74.27;99805.13;5072351;28;20053;-79
2022/02/21 05:37:16;;;;;;;16.35;3.00;;;;;;;4.78;75.04;99773.56;5052613;28;20036;-80
2022/02/21 05:39:42;;;;;;;18.90;2.55;;;;;;;4.81;73.02;99778.69;5056791;28;20376;-76
2022/02/21 05:42:07;;;;;;;9.68;2.13;;;;;;;4.84;72.69;99775.97;5071805;28;20503;-81
2022/02/21 05:44:33;;;;;;;11.55;2.28;;;;;;;4.79;74.16;99773.50;5072465;28;20048;-75
2022/02/21 05:46:58;;;;;;;14.45;2.53;;;;;;;4.75;74.86;99791.13;5057666;28;20532;-80
2022/02/21 05:49:23;;;;;;;12.52;2.60;;;;;;;4.73;75.30;99774.63;5052363;28;20070;-78
2022/02/21 05:51:49;;;;;;;10.50;2.70;;;;;;;4.72;75.67;99765.03;5053103;28;20381;-80
2022/02/21 05:54:14;;;;;;;17.58;3.40;;;;;;;4.73;75.67;99786.84;5053704;28;20496;-81
2022/02/21 05:56:39;;;;;;;15.23;2.80;;;;;;;4.73;75.45;99752.75;5054999;28;20036;-76
2022/02/21 05:59:05;;;;;;;14.90;2.88;;;;;;;4.68;76.11;99767.81;5056049;28;20104;-81
2022/02/21 06:01:30;;;;;;;13.50;2.80;;;;;;;4.62;76.91;99740.06;5056498;28;20074;-81
2022/02/21 06:03:55;;;;;;;12.95;2.83;;;;;;;4.62;76.33;99762.78;5055833;28;20037;-77
2022/02/21 06:06:21;;;;;;;19.38;3.15;;;;;;;4.69;76.62;99759.03;5055528;28;20017;-76
2022/02/21 06:08:46;;;;;;;17.85;2.85;;;;;;;4.67;75.59;99739.91;5057845;28;20495;-81
2022/02/21 06:11:12;;;;;;;16.98;2.97;;;;;;;4.68;76.42;99733.72;5058354;28;20028;-78
2022/02/21 06:13:37;;;;;;;14.23;2.53;;;;;;;4.62;76.47;99742.69;5056577;28;20024;-82
2022/02/21 06:16:03;;;;;;;17.10;3.53;;;;;;;4.55;77.75;99730.72;5056540;28;20029;-78
2022/02/21 06:18:28;;;;;;;16.13;2.80;;;;;;;4.56;77.17;99724.56;5057676;28;20029;-76
2022/02/21 06:20:53;;;;;;;17.55;2.55;;;;;;;4.62;76.44;99750.56;5057445;28;20120;-78
2022/02/21 06:23:19;;;;;;;11.43;2.47;;;;;;;4.61;76.98;99761.13;5058475;28;20049;-82
2022/02/21 06:25:46;;;;;;;14.65;2.38;;;;;;;4.64;75.91;99747.88;5056466;28;20093;-77
2022/02/21 06:28:12;;;;;;;20.27;3.30;;;;;;;4.60;77.16;99744.50;5054946;28;20052;-75
2022/02/21 06:30:38;;;;;;;16.98;2.90;;;;;;;4.66;76.25;99728.53;5054499;28;20032;-76
2022/02/21 06:33:04;;;;;;;15.85;2.72;;;;;;;4.71;75.93;99741.50;5061808;28;20016;-80
2022/02/21 06:35:29;;;;;;;15.25;3.20;;;;;;;4.67;76.98;99740.75;5076198;28;20481;-79
2022/02/21 06:37:57;;;;;;;18.15;3.72;;;;;;;4.61;77.22;99735.72;5057833;28;20534;-76
2022/02/21 06:40:23;;;;;;;16.85;3.47;;;;;;;4.66;77.25;99707.56;5055519;28;20025;-78
2022/02/21 06:42:49;;;;;;;25.98;3.10;;;;;;;4.72;78.09;99732.72;5052390;28;20026;-77
2022/02/21 06:45:14;;;;;;;13.65;3.70;;;;;;;4.80;77.30;99732.41;5073420;28;20040;-75
2022/02/21 06:47:40;;;;;;;16.33;2.92;;;;;;;4.78;77.83;99732.47;5074609;28;20020;-77
2022/02/21 06:50:06;;;;;;;15.55;2.60;;;;;;;4.80;77.78;99709.66;5041637;28;20048;-74
2022/02/21 06:52:32;;;;;;;17.38;3.67;;;;;;;4.88;76.07;99697.09;5051471;28;20032;-76
2022/02/21 06:55:01;;;;;;;12.82;2.45;;;;;;;4.92;76.58;99711.81;5053995;28;20079;-74
2022/02/21 06:57:27;;;;;;;15.52;2.90;;;;;;;4.97;76.08;99685.38;5052497;28;20071;-75
2022/02/21 06:59:53;;;;;;;14.27;2.40;;;;;;;4.98;77.36;99729.06;5052996;28;20056;-76
2022/02/21 07:02:18;;;;;;;13.73;2.90;;;;;;;5.02;77.40;99685.19;5053797;28;20029;-74
2022/02/21 07:04:44;;;;;;;14.80;2.70;;;;;;;5.04;76.74;99712.25;5054500;28;20032;-74
2022/02/21 07:07:09;;;;;;;14.00;2.28;;;;;;;5.05;76.94;99730.53;5053864;28;20025;-73
2022/02/21 07:09:34;;;;;;;19.00;2.83;;;;;;;5.04;77.37;99714.88;5055394;28;20028;-76
2022/02/21 07:12:00;;;;;;;13.45;2.55;;;;;;;5.17;75.99;99709.97;5053844;28;20048;-74
2022/02/21 07:14:25;;;;;;;12.10;2.53;;;;;;;5.18;75.87;99693.28;5052747;28;20051;-74
2022/02/21 07:16:52;;;;;;;14.63;2.83;;;;;;;5.29;74.64;99658.72;5058595;28;20096;-75
2022/02/21 07:19:17;;;;;;;10.95;2.55;;;;;;;5.31;74.91;99699.75;5046854;28;20026;-73
2022/02/21 07:21:43;;;;;;;16.25;2.95;;;;;;;5.35;75.22;99668.97;5053800;28;20034;-75
2022/02/21 07:24:09;;;;;;;11.77;2.28;;;;;;;5.45;75.20;99594.16;5053741;28;20468;-74
2022/02/21 07:26:34;;;;;;;14.80;2.78;;;;;;;5.53;74.23;99704.09;5053471;28;20025;-74
2022/02/21 07:29:00;;;;;;;11.38;2.13;;;;;;;5.69;73.80;99643.88;5053425;28;20028;-74
2022/02/21 07:31:25;;;;;;;13.18;2.50;;;;;;;5.72;74.09;99673.50;5054212;28;20669;-72
2022/02/21 07:33:50;;;;;;;13.45;2.20;;;;;;;5.77;73.20;99665.44;5052158;28;20029;-74
2022/02/21 07:36:16;;;;;;;14.70;2.65;;;;;;;5.77;73.14;99681.19;5053648;28;20032;-74
2022/02/21 07:38:41;;;;;;;13.60;2.67;;;;;;;5.77;73.90;99691.69;5053536;28;20035;-71
2022/02/21 07:41:06;;;;;;;16.00;2.72;;;;;;;5.79;74.15;99678.50;5051694;28;20036;-74
2022/02/21 07:43:32;;;;;;;18.33;3.15;;;;;;;5.78;75.17;99646.13;5059586;28;20029;-76
2022/02/21 07:45:57;;;;;;;15.68;2.67;;;;;;;5.73;75.91;99621.84;5052522;28;20025;-74
2022/02/21 07:48:22;;;;;;;18.67;3.10;;;;;;;5.73;77.66;99650.72;5055124;28;20064;-75
2022/02/21 07:50:48;;;;;;;16.45;2.97;;;;;;;5.60;80.35;99642.53;5046485;28;20029;-79
2022/02/21 07:53:13;;;;;;;15.80;2.83;;;;;;;5.56;83.65;99656.69;5048219;28;20087;-79
2022/02/21 07:55:39;;;;;;;24.63;3.25;;;;;;;5.37;85.18;99636.50;5052995;28;20556;-74
2022/02/21 07:58:04;;;;;;;16.35;2.58;;;;;;;5.25;85.37;99650.97;5047892;28;20029;-78
2022/02/21 08:00:30;;;;;;;19.73;3.58;;;;;;;5.17;86.53;99634.69;5052857;28;20051;-77
2022/02/21 08:02:55;;;;;;;18.23;3.65;;;;;;;5.05;88.55;99643.94;5052384;28;20492;-76
2022/02/21 08:05:20;;;;;;;19.77;3.70;;;;;;;4.98;89.38;99608.38;5052717;28;20049;-76
2022/02/21 08:07:46;;;;;;;17.48;2.95;;;;;;;4.90;90.94;99611.31;5045632;28;20105;-77
2022/02/21 08:10:12;;;;;;;19.15;2.70;;;;;;;4.86;91.50;99567.78;5055505;28;20368;-78
2022/02/21 08:12:37;;;;;;;19.52;3.38;;;;;;;4.81;92.35;99574.09;5051931;28;20311;-78
2022/02/21 08:15:04;;;;;;;23.95;3.58;;;;;;;4.67;95.27;99593.06;5052051;28;20032;-77
2022/02/21 08:17:40;;;;;;;16.17;2.67;;;;;;;4.56;96.51;99583.81;5053512;28;20501;-76
2022/02/21 08:20:06;;;;;;;18.25;3.15;;;;;;;4.53;96.27;99614.59;5053136;28;20025;-78
2022/02/21 08:22:31;;;;;;;20.45;3.75;;;;;;;4.49;97.89;99586.75;5052982;28;20028;-77
2022/02/21 08:24:57;;;;;;;20.90;3.28;;;;;;;4.47;98.00;99581.59;5032922;28;20025;-76
2022/02/21 08:27:22;;;;;;;16.23;3.30;;;;;;;4.45;99.55;99574.69;5032840;28;20025;-76
2022/02/21 08:29:47;;;;;;;16.60;3.70;;;;;;;4.47;99.93;99572.88;5032449;28;20026;-79
2022/02/21 08:32:13;;;;;;;24.35;3.72;;;;;;;4.51;98.03;99495.81;5044906;28;20542;-78
2022/02/21 08:34:40;;;;;;;14.48;3.10;;;;;;;4.51;99.21;99553.47;5051506;28;20052;-83
2022/02/21 08:37:07;;;;;;;21.00;3.63;;;;;;;4.54;98.25;99520.13;5052977;28;20372;-76
2022/02/21 08:39:33;;;;;;;20.25;3.97;;;;;;;4.61;97.68;99536.47;5052931;28;20025;-77
2022/02/21 08:41:58;;;;;;;21.75;4.25;;;;;;;4.69;98.25;99567.59;5053738;28;20048;-75
2022/02/21 08:44:25;;;;;;;20.17;3.45;;;;;;;4.79;97.86;99554.97;5052507;28;20481;-76
2022/02/21 08:46:50;;;;;;;21.35;3.42;;;;;;;4.85;98.02;99544.25;5052421;28;20376;-77
2022/02/21 08:49:16;;;;;;;22.65;3.80;;;;;;;4.90;97.38;99555.38;5052800;28;20116;-76
2022/02/21 08:51:41;;;;;;;21.50;3.85;;;;;;;4.98;95.58;99550.66;5054893;28;20029;-76
2022/02/21 08:54:09;;;;;;;19.25;3.20;;;;;;;5.04;95.94;99541.69;5052435;28;20032;-79
2022/02/21 08:56:34;;;;;;;24.20;3.60;;;;;;;5.02;97.22;99527.78;5052142;28;20028;-76
2022/02/21 08:59:00;;;;;;;22.02;3.50;;;;;;;5.06;96.88;99540.69;5053595;28;20025;-78
2022/02/21 09:01:25;;;;;;;28.05;4.07;;;;;;;5.10;96.47;99533.53;5054643;28;20033;-79
2022/02/21 09:03:51;;;;;;;19.33;4.13;;;;;;;5.19;95.67;99525.28;5050760;28;20037;-80
2022/02/21 09:06:16;;;;;;;29.35;3.67;;;;;;;5.25;94.53;99487.41;5052947;28;20036;-76
2022/02/21 09:08:42;;;;;;;24.83;3.83;;;;;;;5.25;94.23;99463.78;5052685;28;20487;-81
2022/02/21 09:11:07;;;;;;;21.50;3.53;;;;;;;5.17;96.13;99521.00;5053567;28;20029;-76
2022/02/21 09:13:32;;;;;;;19.50;3.30;;;;;;;5.15;96.45;99504.47;5054643;28;20057;-79
2022/02/21 09:15:58;;;;;;;29.02;4.25;;;;;;;5.21;96.18;99504.22;5053033;28;20028;-79
2022/02/21 09:18:23;;;;;;;29.25;4.30;;;;;;;5.25;96.21;99519.72;5053950;28;20032;-79
2022/02/21 09:20:48;;;;;;;27.20;4.15;;;;;;;5.25;96.68;99518.91;5053213;28;20021;-76
2022/02/21 09:23:14;;;;;;;21.17;3.55;;;;;;;5.27;96.11;99519.69;5053104;28;20342;-78
2022/02/21 09:25:40;;;;;;;26.20;3.35;;;;;;;5.20;97.05;99518.25;5054093;28;20021;-76
2022/02/21 09:28:05;;;;;;;23.60;3.63;;;;;;;5.08;98.86;99514.41;5052754;28;20021;-74
2022/02/21 09:30:30;;;;;;;14.98;3.28;;;;;;;5.00;99.08;99530.47;5056298;28;20048;-79
2022/02/21 09:32:56;;;;;;;19.60;3.70;;;;;;;4.95;99.40;99521.06;5055480;28;20037;-83
2022/02/21 09:35:22;;;;;;;22.92;4.10;;;;;;;4.91;100.00;99521.22;5057211;28;20044;-79
2022/02/21 09:37:48;;;;;;;20.63;4.30;;;;;;;4.91;100.00;99530.84;5056065;28;20108;-82
2022/02/21 09:40:13;;;;;;;19.95;4.47;;;;;;;4.93;100.00;99490.50;5056164;28;20104;-80
2022/02/21 09:42:40;;;;;;;23.48;3.63;;;;;;;5.01;100.00;99463.09;5056444;28;20104;-77
2022/02/21 09:45:07;;;;;;;24.58;4.30;;;;;;;5.13;100.00;99517.66;5057215;28;20102;-84
2022/02/21 09:47:33;;;;;;;25.50;3.90;;;;;;;5.20;99.92;99500.72;5058091;28;20130;-80
2022/02/21 09:49:59;;;;;;;22.10;4.25;;;;;;;5.26;99.85;99460.25;5056339;28;20063;-78
2022/02/21 09:52:26;;;;;;;24.00;4.07;;;;;;;5.29;99.09;99460.09;5056902;28;20056;-82
2022/02/21 09:54:51;;;;;;;25.95;3.88;;;;;;;5.40;97.59;99493.75;5056473;28;20033;-79
2022/02/21 09:57:17;;;;;;;33.85;4.05;;;;;;;5.50;97.02;99453.00;5058083;28;20491;-78
2022/02/21 09:59:43;;;;;;;23.35;4.40;;;;;;;5.60;97.06;99465.72;5056724;28;20032;-83
2022/02/21 10:02:17;;;;;;;25.48;3.55;;;;;;;5.66;96.23;99478.56;5056249;28;20036;-77
2022/02/21 10:04:43;;;;;;;21.92;3.80;;;;;;;5.67;95.91;99481.13;5055045;28;20101;-78
2022/02/21 10:07:08;;;;;;;25.95;3.97;;;;;;;5.74;95.64;99477.28;5056905;28;20420;-77
2022/02/21 10:09:38;;;;;;;32.30;4.03;;;;;;;5.79;97.08;99465.72;5055888;28;20564;-80
2022/02/21 10:12:04;;;;;;;27.30;4.20;;;;;;;5.76;97.32;99479.00;5056549;28;20035;-77
2022/02/21 10:14:30;;;;;;;31.58;4.28;;;;;;;5.63;98.14;99476.94;5055664;28;20044;-79
2022/02/21 10:17:00;;;;;;;22.75;3.88;;;;;;;5.53;100.00;99486.16;5057467;28;20029;-79
2022/02/21 10:19:38;;;;;;;25.05;4.28;;;;;;;5.46;100.00;99480.34;5070580;28;20090;-79
2022/02/21 10:22:14;;;;;;;24.13;4.18;;;;;;;5.48;100.00;99478.47;5076105;28;20056;-78
2022/02/21 10:24:46;;;;;;;30.52;4.18;;;;;;;5.55;100.00;99493.03;5068414;28;20021;-76
2022/02/21 10:27:16;;;;;;;30.33;4.32;;;;;;;5.66;100.00;99481.19;5055491;28;20048;-77
2022/02/21 10:29:46;;;;;;;29.40;4.78;;;;;;;5.78;100.00;99490.25;5056352;28;20037;-77
2022/02/21 10:32:13;;;;;;;31.15;5.70;;;;;;;5.79;100.00;99492.81;5056273;28;20021;-77
2022/02/21 10:34:38;;;;;;;23.25;3.83;;;;;;;5.84;100.00;99495.25;5054794;28;20049;-80
2022/02/21 10:37:06;;;;;;;26.50;3.90;;;;;;;5.82;100.00;99495.31;5054854;28;20103;-82
2022/02/21 10:39:32;;;;;;;23.27;4.05;;;;;;;5.88;100.00;99505.53;5056031;28;20033;-79
2022/02/21 10:41:58;;;;;;;25.42;3.97;;;;;;;5.94;100.00;99495.66;5054543;28;20047;-81
2022/02/21 10:44:31;;;;;;;28.83;4.25;;;;;;;5.94;100.00;99519.31;5055997;28;20037;-78
2022/02/21 10:47:04;;;;;;;26.98;4.18;;;;;;;5.96;100.00;99502.56;5054893;28;20687;-79
2022/02/21 10:49:32;;;;;;;26.33;4.65;;;;;;;5.89;100.00;99482.72;5057331;28;20064;-81
2022/02/21 10:52:02;;;;;;;23.40;4.13;;;;;;;5.87;100.00;99524.84;5035272;28;20025;-81
2022/02/21 10:54:36;;;;;;;23.80;3.97;;;;;;;5.88;100.00;99539.69;5054770;28;20464;-77
2022/02/21 10:57:06;;;;;;;32.55;4.03;;;;;;;5.93;100.00;99534.22;5054820;28;20074;-76
2022/02/21 10:59:31;;;;;;;22.15;3.47;;;;;;;5.96;100.00;99536.72;5056495;28;20049;-78
2022/02/21 11:01:58;;;;;;;25.83;4.32;;;;;;;6.00;100.00;99533.03;5070272;28;20060;-77
2022/02/21 11:04:24;;;;;;;28.73;4.82;;;;;;;6.11;100.00;99543.03;5058058;28;20500;-82
2022/02/21 11:06:51;;;;;;;28.83;4.53;;;;;;;6.29;100.00;99522.94;5057117;28;20025;-83
2022/02/21 11:09:19;;;;;;;21.83;4.50;;;;;;;6.38;100.00;99546.13;5054708;28;20496;-82
2022/02/21 11:11:49;;;;;;;28.95;4.28;;;;;;;6.43;100.00;99539.81;5055706;28;20033;-82
2022/02/21 11:14:20;;;;;;;27.35;4.28;;;;;;;6.54;100.00;99534.88;5054414;28;20032;-83
2022/02/21 11:16:49;;;;;;;21.02;3.58;;;;;;;6.58;100.00;99535.56;5054423;28;20060;-82
2022/02/21 11:19:16;;;;;;;30.20;3.80;;;;;;;6.52;100.00;99534.94;5054700;28;20064;-82
2022/02/21 11:21:46;;;;;;;20.30;3.90;;;;;;;6.45;100.00;99528.28;5055230;28;20518;-81
2022/02/21 11:24:14;;;;;;;22.63;4.80;;;;;;;6.51;100.00;99530.63;5054138;28;20115;-81
2022/02/21 11:27:13;;;;;;;27.15;4.68;;;;;;;6.58;100.00;99557.47;5054059;28;20074;-83